Airfield :
LOGIN :

Register | Disclaimer

   EN    FR    IT 

 










Legend :    VFR   Marginal VFR   IFR   Intensive IFR   Very Intensive IFR
Visi :
Ceiling :
>= 8 km
>= 3000ft
5 to 8 km
1000 to 3000 ft
1500m to 5 km
500 to 1000 ft
800 to 1500m
200 to 500 ft
< 800m
< 200 ft
Symbols :   Thunderstorms  Fog  Heavy snow  Heavy precipitations  Wind > 20 kt
SIGMETs :     Misc.  Thunderstorms  Icing  Turbulence  Mountain Waves  Volcanic Ashes






- Airport Elevation : 735 ft
- IATA code : EGO


UUOB - Belgorod

CURRENT METAR :
  • 251600Z 24003MPS CAVOK M01/M05 Q1009 R29/810350 NOSIG

EXPIRED METARs :
  • 251530Z 24003MPS CAVOK M00/M04 Q1009 R29/810350 NOSIG
  • 251500Z 24003MPS CAVOK 00/M04 Q1008 R29/810350 NOSIG
  • 251430Z 26003MPS CAVOK 01/M04 Q1008 R29/810350 NOSIG
  • 251400Z 27005MPS CAVOK 01/M04 Q1008 R29/810350 NOSIG
  • 251330Z 26006MPS CAVOK 01/M03 Q1008 R29/810350 NOSIG

TAF TAF UUOB
Valid from the 25 at 15:00 until the 26 at 00:00 UTC


251400Z 2515/2524 25003MPS 9999 BKN030
TEMPO 2518/2524 22003MPS 3100 BR SCT007



MET'MAP, your aeronautical weather chart ! - Copyright ORBIFLY December 2007 - Disclaimer

ORBIFLY MET'MAP TEAM :

Programming & Development : Alexandra Zaïnal
Concept & original design : Baudouin d'Aumeries
Assistance for programming : Marc-Olivier Méhu
Technical & hardware support : Manuel Goepfert

Contact : metmap@orbifly.com




SOURCES & CREDITS :

   NOAA